sensor_id;sensor_type;location;lat;lon;timestamp;temperature;humidity
34768;DHT22;21755;43.608;1.236;2023-11-21T00:01:59;12.00;99.90
34768;DHT22;21755;43.608;1.236;2023-11-21T00:04:25;12.00;99.90
34768;DHT22;21755;43.608;1.236;2023-11-21T00:06:53;12.00;99.90
34768;DHT22;21755;43.608;1.236;2023-11-21T00:09:19;12.00;99.90
34768;DHT22;21755;43.608;1.236;2023-11-21T00:11:45;12.00;99.90
34768;DHT22;21755;43.608;1.236;2023-11-21T00:14:11;12.00;99.90
34768;DHT22;21755;43.608;1.236;2023-11-21T00:16:37;11.90;99.90
34768;DHT22;21755;43.608;1.236;2023-11-21T00:19:03;11.90;99.90
34768;DHT22;21755;43.608;1.236;2023-11-21T00:21:30;11.90;99.90
34768;DHT22;21755;43.608;1.236;2023-11-21T00:23:56;11.90;99.90
34768;DHT22;21755;43.608;1.236;2023-11-21T00:26:22;11.90;99.90
34768;DHT22;21755;43.608;1.236;2023-11-21T00:28:47;11.90;99.90
34768;DHT22;21755;43.608;1.236;2023-11-21T00:31:13;11.90;99.90
34768;DHT22;21755;43.608;1.236;2023-11-21T00:33:39;11.90;99.90
34768;DHT22;21755;43.608;1.236;2023-11-21T00:36:05;11.90;99.90
34768;DHT22;21755;43.608;1.236;2023-11-21T00:38:38;11.90;99.90
34768;DHT22;21755;43.608;1.236;2023-11-21T00:41:07;11.90;99.90
34768;DHT22;21755;43.608;1.236;2023-11-21T00:43:33;11.90;99.90
34768;DHT22;21755;43.608;1.236;2023-11-21T00:46:05;11.90;99.90
34768;DHT22;21755;43.608;1.236;2023-11-21T00:48:33;11.90;99.90
34768;DHT22;21755;43.608;1.236;2023-11-21T00:50:59;11.90;99.90
34768;DHT22;21755;43.608;1.236;2023-11-21T00:53:25;11.90;99.90
34768;DHT22;21755;43.608;1.236;2023-11-21T00:55:52;11.90;99.90
34768;DHT22;21755;43.608;1.236;2023-11-21T00:58:26;11.90;99.90
34768;DHT22;21755;43.608;1.236;2023-11-21T01:00:51;11.90;99.90
34768;DHT22;21755;43.608;1.236;2023-11-21T01:03:18;11.90;99.90
34768;DHT22;21755;43.608;1.236;2023-11-21T01:05:45;11.90;99.90
34768;DHT22;21755;43.608;1.236;2023-11-21T01:08:11;11.90;99.90
34768;DHT22;21755;43.608;1.236;2023-11-21T01:10:37;11.90;99.90
34768;DHT22;21755;43.608;1.236;2023-11-21T01:13:03;11.80;99.90
34768;DHT22;21755;43.608;1.236;2023-11-21T01:15:30;11.90;99.90
34768;DHT22;21755;43.608;1.236;2023-11-21T01:17:56;11.90;99.90
34768;DHT22;21755;43.608;1.236;2023-11-21T01:20:22;11.80;99.90
34768;DHT22;21755;43.608;1.236;2023-11-21T01:22:48;11.80;99.90
34768;DHT22;21755;43.608;1.236;2023-11-21T01:25:16;11.90;99.90
34768;DHT22;21755;43.608;1.236;2023-11-21T01:27:43;11.80;99.90
34768;DHT22;21755;43.608;1.236;2023-11-21T01:30:09;11.80;99.90
34768;DHT22;21755;43.608;1.236;2023-11-21T01:32:39;11.80;99.90
34768;DHT22;21755;43.608;1.236;2023-11-21T01:35:06;11.80;99.90
34768;DHT22;21755;43.608;1.236;2023-11-21T01:37:32;11.80;99.90
34768;DHT22;21755;43.608;1.236;2023-11-21T01:40:01;11.80;99.90
34768;DHT22;21755;43.608;1.236;2023-11-21T01:42:30;11.80;99.90
34768;DHT22;21755;43.608;1.236;2023-11-21T01:44:56;11.80;99.90
34768;DHT22;21755;43.608;1.236;2023-11-21T01:47:22;11.80;99.90
34768;DHT22;21755;43.608;1.236;2023-11-21T01:49:48;11.80;99.90
34768;DHT22;21755;43.608;1.236;2023-11-21T01:52:14;11.80;99.90
34768;DHT22;21755;43.608;1.236;2023-11-21T01:54:41;11.80;99.90
34768;DHT22;21755;43.608;1.236;2023-11-21T01:57:08;11.80;99.90
34768;DHT22;21755;43.608;1.236;2023-11-21T01:59:38;11.80;99.90
34768;DHT22;21755;43.608;1.236;2023-11-21T02:02:07;11.80;99.90
34768;DHT22;21755;43.608;1.236;2023-11-21T02:04:33;11.80;99.90
34768;DHT22;21755;43.608;1.236;2023-11-21T02:07:00;11.80;99.90
34768;DHT22;21755;43.608;1.236;2023-11-21T02:09:27;11.80;99.90
34768;DHT22;21755;43.608;1.236;2023-11-21T02:11:56;11.80;99.90
34768;DHT22;21755;43.608;1.236;2023-11-21T02:14:27;11.80;99.90
34768;DHT22;21755;43.608;1.236;2023-11-21T02:16:56;11.80;99.90
34768;DHT22;21755;43.608;1.236;2023-11-21T02:19:23;11.80;99.90
34768;DHT22;21755;43.608;1.236;2023-11-21T02:21:52;11.80;99.90
34768;DHT22;21755;43.608;1.236;2023-11-21T02:24:22;11.70;99.90
34768;DHT22;21755;43.608;1.236;2023-11-21T02:26:48;11.70;99.90
34768;DHT22;21755;43.608;1.236;2023-11-21T02:29:18;11.70;99.90
34768;DHT22;21755;43.608;1.236;2023-11-21T02:31:51;11.70;99.90
34768;DHT22;21755;43.608;1.236;2023-11-21T02:34:18;11.70;99.90
34768;DHT22;21755;43.608;1.236;2023-11-21T02:36:44;11.70;99.90
34768;DHT22;21755;43.608;1.236;2023-11-21T02:39:10;11.70;99.90
34768;DHT22;21755;43.608;1.236;2023-11-21T02:41:39;11.70;99.90
34768;DHT22;21755;43.608;1.236;2023-11-21T02:44:07;11.70;99.90
34768;DHT22;21755;43.608;1.236;2023-11-21T02:46:34;11.70;99.90
34768;DHT22;21755;43.608;1.236;2023-11-21T02:49:02;11.70;99.90
34768;DHT22;21755;43.608;1.236;2023-11-21T02:51:28;11.70;99.90
34768;DHT22;21755;43.608;1.236;2023-11-21T02:53:54;11.70;99.90
34768;DHT22;21755;43.608;1.236;2023-11-21T02:56:20;11.70;99.90
34768;DHT22;21755;43.608;1.236;2023-11-21T02:58:46;11.70;99.90
34768;DHT22;21755;43.608;1.236;2023-11-21T03:01:12;11.70;99.90
34768;DHT22;21755;43.608;1.236;2023-11-21T03:03:39;11.70;99.90
34768;DHT22;21755;43.608;1.236;2023-11-21T03:06:06;11.60;99.90
34768;DHT22;21755;43.608;1.236;2023-11-21T03:08:32;11.60;99.90
34768;DHT22;21755;43.608;1.236;2023-11-21T03:10:58;11.60;99.90
34768;DHT22;21755;43.608;1.236;2023-11-21T03:13:24;11.60;99.90
34768;DHT22;21755;43.608;1.236;2023-11-21T03:15:50;11.60;99.90
34768;DHT22;21755;43.608;1.236;2023-11-21T03:18:16;11.60;99.90
34768;DHT22;21755;43.608;1.236;2023-11-21T03:20:43;11.60;99.90
34768;DHT22;21755;43.608;1.236;2023-11-21T03:23:12;11.60;99.90
34768;DHT22;21755;43.608;1.236;2023-11-21T03:25:37;11.60;99.90
34768;DHT22;21755;43.608;1.236;2023-11-21T03:28:03;11.60;99.90
34768;DHT22;21755;43.608;1.236;2023-11-21T03:30:29;11.60;99.90
34768;DHT22;21755;43.608;1.236;2023-11-21T03:32:55;11.60;99.90
34768;DHT22;21755;43.608;1.236;2023-11-21T03:35:22;11.60;99.90
34768;DHT22;21755;43.608;1.236;2023-11-21T03:37:48;11.60;99.90
34768;DHT22;21755;43.608;1.236;2023-11-21T03:40:14;11.50;99.90
34768;DHT22;21755;43.608;1.236;2023-11-21T03:42:40;11.50;99.90
34768;DHT22;21755;43.608;1.236;2023-11-21T03:45:07;11.50;99.90
34768;DHT22;21755;43.608;1.236;2023-11-21T03:47:34;11.50;99.90
34768;DHT22;21755;43.608;1.236;2023-11-21T03:50:00;11.50;99.90
34768;DHT22;21755;43.608;1.236;2023-11-21T03:52:26;11.50;99.90
34768;DHT22;21755;43.608;1.236;2023-11-21T03:54:54;11.50;99.90
34768;DHT22;21755;43.608;1.236;2023-11-21T03:57:21;11.50;99.90
34768;DHT22;21755;43.608;1.236;2023-11-21T03:59:47;11.50;99.90
34768;DHT22;21755;43.608;1.236;2023-11-21T04:02:13;11.50;99.90
34768;DHT22;21755;43.608;1.236;2023-11-21T04:04:39;11.40;99.90
34768;DHT22;21755;43.608;1.236;2023-11-21T04:07:05;11.40;99.90
34768;DHT22;21755;43.608;1.236;2023-11-21T04:09:30;11.40;99.90
34768;DHT22;21755;43.608;1.236;2023-11-21T04:11:56;11.40;99.90
34768;DHT22;21755;43.608;1.236;2023-11-21T04:14:22;11.40;99.90
34768;DHT22;21755;43.608;1.236;2023-11-21T04:16:48;11.40;99.90
34768;DHT22;21755;43.608;1.236;2023-11-21T04:19:14;11.40;99.90
34768;DHT22;21755;43.608;1.236;2023-11-21T04:21:43;11.30;99.90
34768;DHT22;21755;43.608;1.236;2023-11-21T04:24:10;11.30;99.90
34768;DHT22;21755;43.608;1.236;2023-11-21T04:26:36;11.30;99.90
34768;DHT22;21755;43.608;1.236;2023-11-21T04:29:02;11.30;99.90
34768;DHT22;21755;43.608;1.236;2023-11-21T04:31:28;11.30;99.90
34768;DHT22;21755;43.608;1.236;2023-11-21T04:33:53;11.30;99.90
34768;DHT22;21755;43.608;1.236;2023-11-21T04:36:20;11.30;99.90
34768;DHT22;21755;43.608;1.236;2023-11-21T04:38:45;11.30;99.90
34768;DHT22;21755;43.608;1.236;2023-11-21T04:41:11;11.30;99.90
34768;DHT22;21755;43.608;1.236;2023-11-21T04:43:37;11.30;99.90
34768;DHT22;21755;43.608;1.236;2023-11-21T04:46:03;11.30;99.90
34768;DHT22;21755;43.608;1.236;2023-11-21T04:48:29;11.30;99.90
34768;DHT22;21755;43.608;1.236;2023-11-21T04:50:55;11.30;99.90
34768;DHT22;21755;43.608;1.236;2023-11-21T04:53:21;11.20;99.90
34768;DHT22;21755;43.608;1.236;2023-11-21T04:55:47;11.30;99.90
34768;DHT22;21755;43.608;1.236;2023-11-21T04:58:14;11.20;99.90
34768;DHT22;21755;43.608;1.236;2023-11-21T05:00:40;11.20;99.90
34768;DHT22;21755;43.608;1.236;2023-11-21T05:03:07;11.20;99.90
34768;DHT22;21755;43.608;1.236;2023-11-21T05:05:33;11.20;99.90
34768;DHT22;21755;43.608;1.236;2023-11-21T05:08:02;11.20;99.90
34768;DHT22;21755;43.608;1.236;2023-11-21T05:10:28;11.20;99.90
34768;DHT22;21755;43.608;1.236;2023-11-21T05:12:55;11.30;99.90
34768;DHT22;21755;43.608;1.236;2023-11-21T05:15:21;11.30;99.90
34768;DHT22;21755;43.608;1.236;2023-11-21T05:17:47;11.30;99.90
34768;DHT22;21755;43.608;1.236;2023-11-21T05:20:17;11.30;99.90
34768;DHT22;21755;43.608;1.236;2023-11-21T05:22:47;11.30;99.90
34768;DHT22;21755;43.608;1.236;2023-11-21T05:25:16;11.30;99.90
34768;DHT22;21755;43.608;1.236;2023-11-21T05:27:48;11.30;99.90
34768;DHT22;21755;43.608;1.236;2023-11-21T05:30:14;11.30;99.90
34768;DHT22;21755;43.608;1.236;2023-11-21T05:32:40;11.30;99.90
34768;DHT22;21755;43.608;1.236;2023-11-21T05:35:10;11.30;99.90
34768;DHT22;21755;43.608;1.236;2023-11-21T05:37:41;11.30;99.90
34768;DHT22;21755;43.608;1.236;2023-11-21T05:40:08;11.30;99.90
34768;DHT22;21755;43.608;1.236;2023-11-21T05:42:34;11.30;99.90
34768;DHT22;21755;43.608;1.236;2023-11-21T05:45:02;11.30;99.90
34768;DHT22;21755;43.608;1.236;2023-11-21T05:47:41;11.30;99.90
34768;DHT22;21755;43.608;1.236;2023-11-21T05:50:12;11.30;99.90
34768;DHT22;21755;43.608;1.236;2023-11-21T05:52:41;11.30;99.90
34768;DHT22;21755;43.608;1.236;2023-11-21T05:55:07;11.30;99.90
34768;DHT22;21755;43.608;1.236;2023-11-21T05:57:34;11.30;99.90
34768;DHT22;21755;43.608;1.236;2023-11-21T06:02:37;11.30;99.90
34768;DHT22;21755;43.608;1.236;2023-11-21T06:05:04;11.30;99.90
34768;DHT22;21755;43.608;1.236;2023-11-21T06:07:30;11.30;99.90
34768;DHT22;21755;43.608;1.236;2023-11-21T06:09:56;11.30;99.90
34768;DHT22;21755;43.608;1.236;2023-11-21T06:12:21;11.30;99.90
34768;DHT22;21755;43.608;1.236;2023-11-21T06:14:47;11.30;99.90
34768;DHT22;21755;43.608;1.236;2023-11-21T06:17:13;11.30;99.90
34768;DHT22;21755;43.608;1.236;2023-11-21T06:19:39;11.30;99.90
34768;DHT22;21755;43.608;1.236;2023-11-21T06:22:05;11.30;99.90
34768;DHT22;21755;43.608;1.236;2023-11-21T06:24:31;11.20;99.90
34768;DHT22;21755;43.608;1.236;2023-11-21T06:26:57;10.90;99.90
34768;DHT22;21755;43.608;1.236;2023-11-21T06:29:24;10.80;99.90
34768;DHT22;21755;43.608;1.236;2023-11-21T06:31:50;10.60;99.90
34768;DHT22;21755;43.608;1.236;2023-11-21T06:34:15;10.50;99.90
34768;DHT22;21755;43.608;1.236;2023-11-21T06:36:41;10.50;99.90
34768;DHT22;21755;43.608;1.236;2023-11-21T06:39:07;10.40;99.90
34768;DHT22;21755;43.608;1.236;2023-11-21T06:41:34;10.40;99.90
34768;DHT22;21755;43.608;1.236;2023-11-21T06:44:00;10.40;99.90
34768;DHT22;21755;43.608;1.236;2023-11-21T06:46:26;10.30;99.90
34768;DHT22;21755;43.608;1.236;2023-11-21T06:48:52;10.20;99.90
34768;DHT22;21755;43.608;1.236;2023-11-21T06:51:18;10.20;99.90
34768;DHT22;21755;43.608;1.236;2023-11-21T06:53:44;10.20;99.90
34768;DHT22;21755;43.608;1.236;2023-11-21T06:56:19;10.20;99.90
34768;DHT22;21755;43.608;1.236;2023-11-21T06:58:45;10.20;99.90
34768;DHT22;21755;43.608;1.236;2023-11-21T07:01:12;10.10;99.90
34768;DHT22;21755;43.608;1.236;2023-11-21T07:03:39;10.10;99.90
34768;DHT22;21755;43.608;1.236;2023-11-21T07:06:05;10.20;99.90
34768;DHT22;21755;43.608;1.236;2023-11-21T07:08:31;10.20;99.90
34768;DHT22;21755;43.608;1.236;2023-11-21T07:10:57;10.20;99.90
34768;DHT22;21755;43.608;1.236;2023-11-21T07:13:23;10.20;99.90
34768;DHT22;21755;43.608;1.236;2023-11-21T07:15:49;10.20;99.90
34768;DHT22;21755;43.608;1.236;2023-11-21T07:18:15;10.20;99.90
34768;DHT22;21755;43.608;1.236;2023-11-21T07:20:41;10.20;99.90
34768;DHT22;21755;43.608;1.236;2023-11-21T07:23:06;10.20;99.90
34768;DHT22;21755;43.608;1.236;2023-11-21T07:25:32;10.20;99.90
34768;DHT22;21755;43.608;1.236;2023-11-21T07:27:59;10.20;99.90
34768;DHT22;21755;43.608;1.236;2023-11-21T07:30:26;10.20;99.90
34768;DHT22;21755;43.608;1.236;2023-11-21T07:32:52;10.30;99.90
34768;DHT22;21755;43.608;1.236;2023-11-21T07:35:18;10.30;99.90
34768;DHT22;21755;43.608;1.236;2023-11-21T07:37:44;10.30;99.90
34768;DHT22;21755;43.608;1.236;2023-11-21T07:40:10;10.30;99.90
34768;DHT22;21755;43.608;1.236;2023-11-21T07:42:37;10.30;99.90
34768;DHT22;21755;43.608;1.236;2023-11-21T07:45:05;10.30;99.90
34768;DHT22;21755;43.608;1.236;2023-11-21T07:47:32;10.30;99.90
34768;DHT22;21755;43.608;1.236;2023-11-21T07:50:00;10.40;99.90
34768;DHT22;21755;43.608;1.236;2023-11-21T07:52:28;10.40;99.90
34768;DHT22;21755;43.608;1.236;2023-11-21T07:54:53;10.40;99.90
34768;DHT22;21755;43.608;1.236;2023-11-21T07:57:19;10.40;99.90
34768;DHT22;21755;43.608;1.236;2023-11-21T07:59:45;10.40;99.90
34768;DHT22;21755;43.608;1.236;2023-11-21T08:02:11;10.40;99.90
34768;DHT22;21755;43.608;1.236;2023-11-21T08:04:37;10.40;99.90
34768;DHT22;21755;43.608;1.236;2023-11-21T08:07:03;10.50;99.90
34768;DHT22;21755;43.608;1.236;2023-11-21T08:09:29;10.60;99.90
34768;DHT22;21755;43.608;1.236;2023-11-21T08:11:55;10.60;99.90
34768;DHT22;21755;43.608;1.236;2023-11-21T08:14:22;10.60;99.90
34768;DHT22;21755;43.608;1.236;2023-11-21T08:16:51;10.70;99.90
34768;DHT22;21755;43.608;1.236;2023-11-21T08:19:17;10.80;99.90
34768;DHT22;21755;43.608;1.236;2023-11-21T08:21:44;10.80;99.90
34768;DHT22;21755;43.608;1.236;2023-11-21T08:24:11;10.90;99.90
34768;DHT22;21755;43.608;1.236;2023-11-21T08:26:37;10.80;99.90
34768;DHT22;21755;43.608;1.236;2023-11-21T08:29:03;10.90;99.90
34768;DHT22;21755;43.608;1.236;2023-11-21T08:31:29;10.90;99.90
34768;DHT22;21755;43.608;1.236;2023-11-21T08:33:55;10.90;99.90
34768;DHT22;21755;43.608;1.236;2023-11-21T08:36:22;10.90;99.90
34768;DHT22;21755;43.608;1.236;2023-11-21T08:38:51;10.90;99.90
34768;DHT22;21755;43.608;1.236;2023-11-21T08:41:20;10.90;99.90
34768;DHT22;21755;43.608;1.236;2023-11-21T08:43:52;10.90;99.90
34768;DHT22;21755;43.608;1.236;2023-11-21T08:46:19;11.00;99.90
34768;DHT22;21755;43.608;1.236;2023-11-21T08:48:45;11.00;99.90
34768;DHT22;21755;43.608;1.236;2023-11-21T08:51:12;11.00;99.90
34768;DHT22;21755;43.608;1.236;2023-11-21T08:53:38;11.00;99.90
34768;DHT22;21755;43.608;1.236;2023-11-21T08:56:04;11.00;99.90
34768;DHT22;21755;43.608;1.236;2023-11-21T08:58:31;11.00;99.90
34768;DHT22;21755;43.608;1.236;2023-11-21T09:00:58;11.00;99.90
34768;DHT22;21755;43.608;1.236;2023-11-21T09:03:24;11.00;99.90
34768;DHT22;21755;43.608;1.236;2023-11-21T09:05:50;11.00;99.90
34768;DHT22;21755;43.608;1.236;2023-11-21T09:08:16;11.00;99.90
34768;DHT22;21755;43.608;1.236;2023-11-21T09:10:42;11.00;99.90
34768;DHT22;21755;43.608;1.236;2023-11-21T09:13:10;11.00;99.90
34768;DHT22;21755;43.608;1.236;2023-11-21T09:15:37;11.00;99.90
34768;DHT22;21755;43.608;1.236;2023-11-21T09:18:03;11.00;99.90
34768;DHT22;21755;43.608;1.236;2023-11-21T09:20:28;11.10;99.90
34768;DHT22;21755;43.608;1.236;2023-11-21T09:22:54;11.10;99.90
34768;DHT22;21755;43.608;1.236;2023-11-21T09:25:21;11.10;99.90
34768;DHT22;21755;43.608;1.236;2023-11-21T09:27:48;11.10;99.90
34768;DHT22;21755;43.608;1.236;2023-11-21T09:30:14;11.20;99.90
34768;DHT22;21755;43.608;1.236;2023-11-21T09:32:40;11.20;99.90
34768;DHT22;21755;43.608;1.236;2023-11-21T09:35:06;11.30;99.90
34768;DHT22;21755;43.608;1.236;2023-11-21T09:37:35;11.30;99.90
34768;DHT22;21755;43.608;1.236;2023-11-21T09:40:01;11.40;99.90
34768;DHT22;21755;43.608;1.236;2023-11-21T09:42:37;11.40;99.90
34768;DHT22;21755;43.608;1.236;2023-11-21T09:45:24;11.40;99.90
34768;DHT22;21755;43.608;1.236;2023-11-21T09:47:52;11.50;99.90
34768;DHT22;21755;43.608;1.236;2023-11-21T09:50:20;11.50;99.90
34768;DHT22;21755;43.608;1.236;2023-11-21T09:52:57;11.50;99.90
34768;DHT22;21755;43.608;1.236;2023-11-21T09:55:26;11.40;99.90
34768;DHT22;21755;43.608;1.236;2023-11-21T09:57:54;11.50;99.90
34768;DHT22;21755;43.608;1.236;2023-11-21T10:00:22;11.60;99.90
34768;DHT22;21755;43.608;1.236;2023-11-21T10:02:49;11.60;99.90
34768;DHT22;21755;43.608;1.236;2023-11-21T10:05:16;11.80;99.90
34768;DHT22;21755;43.608;1.236;2023-11-21T10:07:46;11.80;99.90
34768;DHT22;21755;43.608;1.236;2023-11-21T10:10:13;11.90;99.90
34768;DHT22;21755;43.608;1.236;2023-11-21T10:12:43;11.90;99.90
34768;DHT22;21755;43.608;1.236;2023-11-21T10:15:11;11.80;99.90
34768;DHT22;21755;43.608;1.236;2023-11-21T10:17:43;11.80;99.90
34768;DHT22;21755;43.608;1.236;2023-11-21T10:20:14;11.70;99.90
34768;DHT22;21755;43.608;1.236;2023-11-21T10:22:41;11.70;99.90
34768;DHT22;21755;43.608;1.236;2023-11-21T10:25:11;11.80;99.90
34768;DHT22;21755;43.608;1.236;2023-11-21T10:27:40;11.80;99.90
34768;DHT22;21755;43.608;1.236;2023-11-21T10:30:08;11.80;99.90
34768;DHT22;21755;43.608;1.236;2023-11-21T10:32:41;11.80;99.90
34768;DHT22;21755;43.608;1.236;2023-11-21T10:35:10;11.90;99.90
34768;DHT22;21755;43.608;1.236;2023-11-21T10:37:40;11.90;99.90
34768;DHT22;21755;43.608;1.236;2023-11-21T10:40:10;12.00;99.90
34768;DHT22;21755;43.608;1.236;2023-11-21T10:42:39;12.00;99.90
34768;DHT22;21755;43.608;1.236;2023-11-21T10:45:06;12.00;99.90
34768;DHT22;21755;43.608;1.236;2023-11-21T10:47:39;12.20;99.90
34768;DHT22;21755;43.608;1.236;2023-11-21T10:50:06;12.20;99.90
34768;DHT22;21755;43.608;1.236;2023-11-21T10:52:37;12.20;99.90
34768;DHT22;21755;43.608;1.236;2023-11-21T10:55:19;12.20;99.90
34768;DHT22;21755;43.608;1.236;2023-11-21T10:57:52;12.10;99.90
34768;DHT22;21755;43.608;1.236;2023-11-21T11:00:19;12.00;99.90
34768;DHT22;21755;43.608;1.236;2023-11-21T11:02:52;11.90;99.90
34768;DHT22;21755;43.608;1.236;2023-11-21T11:05:23;11.80;99.90
34768;DHT22;21755;43.608;1.236;2023-11-21T11:08:08;11.80;99.90
34768;DHT22;21755;43.608;1.236;2023-11-21T11:10:37;11.80;99.90
34768;DHT22;21755;43.608;1.236;2023-11-21T11:13:04;11.90;99.90
34768;DHT22;21755;43.608;1.236;2023-11-21T11:15:32;11.90;99.90
34768;DHT22;21755;43.608;1.236;2023-11-21T11:17:59;11.90;99.90
34768;DHT22;21755;43.608;1.236;2023-11-21T11:20:45;11.80;99.90
34768;DHT22;21755;43.608;1.236;2023-11-21T11:23:27;11.80;99.90
34768;DHT22;21755;43.608;1.236;2023-11-21T11:26:07;11.80;99.90
34768;DHT22;21755;43.608;1.236;2023-11-21T11:28:55;11.80;99.90
34768;DHT22;21755;43.608;1.236;2023-11-21T11:32:05;11.70;99.90
34768;DHT22;21755;43.608;1.236;2023-11-21T11:34:33;11.70;99.90
34768;DHT22;21755;43.608;1.236;2023-11-21T11:37:04;11.70;99.90
34768;DHT22;21755;43.608;1.236;2023-11-21T11:39:34;11.60;99.90
34768;DHT22;21755;43.608;1.236;2023-11-21T11:42:07;11.60;99.90
34768;DHT22;21755;43.608;1.236;2023-11-21T11:50:09;11.70;99.90
34768;DHT22;21755;43.608;1.236;2023-11-21T11:53:15;11.90;99.90
34768;DHT22;21755;43.608;1.236;2023-11-21T11:55:41;11.90;99.90
34768;DHT22;21755;43.608;1.236;2023-11-21T11:58:07;11.90;99.90
34768;DHT22;21755;43.608;1.236;2023-11-21T12:00:36;11.90;99.90
34768;DHT22;21755;43.608;1.236;2023-11-21T12:03:04;11.80;99.90
34768;DHT22;21755;43.608;1.236;2023-11-21T12:05:35;11.80;99.90
34768;DHT22;21755;43.608;1.236;2023-11-21T12:08:05;11.90;99.90
34768;DHT22;21755;43.608;1.236;2023-11-21T12:10:33;11.90;99.90
34768;DHT22;21755;43.608;1.236;2023-11-21T12:13:09;11.80;99.90
34768;DHT22;21755;43.608;1.236;2023-11-21T12:15:36;11.80;99.90
34768;DHT22;21755;43.608;1.236;2023-11-21T12:18:02;11.80;99.90
34768;DHT22;21755;43.608;1.236;2023-11-21T12:20:32;11.80;99.90
34768;DHT22;21755;43.608;1.236;2023-11-21T12:23:04;11.80;99.90
34768;DHT22;21755;43.608;1.236;2023-11-21T12:25:31;11.80;99.90
34768;DHT22;21755;43.608;1.236;2023-11-21T12:28:02;11.90;99.90
34768;DHT22;21755;43.608;1.236;2023-11-21T12:30:30;12.10;99.90
34768;DHT22;21755;43.608;1.236;2023-11-21T12:32:58;12.20;99.90
34768;DHT22;21755;43.608;1.236;2023-11-21T12:35:26;12.30;99.90
34768;DHT22;21755;43.608;1.236;2023-11-21T12:37:53;12.40;99.90
34768;DHT22;21755;43.608;1.236;2023-11-21T12:40:20;12.40;99.90
34768;DHT22;21755;43.608;1.236;2023-11-21T12:42:52;12.40;99.90
34768;DHT22;21755;43.608;1.236;2023-11-21T12:45:26;12.50;99.90
34768;DHT22;21755;43.608;1.236;2023-11-21T12:48:02;12.50;99.90
34768;DHT22;21755;43.608;1.236;2023-11-21T12:50:33;12.50;99.90
34768;DHT22;21755;43.608;1.236;2023-11-21T12:53:02;12.40;99.90
34768;DHT22;21755;43.608;1.236;2023-11-21T12:55:31;12.30;99.90
34768;DHT22;21755;43.608;1.236;2023-11-21T12:57:59;12.10;99.90
34768;DHT22;21755;43.608;1.236;2023-11-21T13:00:45;11.90;99.90
34768;DHT22;21755;43.608;1.236;2023-11-21T13:03:12;11.60;99.90
34768;DHT22;21755;43.608;1.236;2023-11-21T13:05:43;11.50;99.90
34768;DHT22;21755;43.608;1.236;2023-11-21T13:08:13;11.40;99.90
34768;DHT22;21755;43.608;1.236;2023-11-21T13:10:40;11.50;99.90
34768;DHT22;21755;43.608;1.236;2023-11-21T13:13:10;11.60;99.90
34768;DHT22;21755;43.608;1.236;2023-11-21T13:15:40;11.70;99.90
34768;DHT22;21755;43.608;1.236;2023-11-21T13:18:09;11.80;99.90
34768;DHT22;21755;43.608;1.236;2023-11-21T13:20:36;11.90;99.90
34768;DHT22;21755;43.608;1.236;2023-11-21T13:23:07;12.00;99.90
34768;DHT22;21755;43.608;1.236;2023-11-21T13:25:34;12.10;99.90
34768;DHT22;21755;43.608;1.236;2023-11-21T13:28:00;12.10;99.90
34768;DHT22;21755;43.608;1.236;2023-11-21T13:30:27;12.10;99.90
34768;DHT22;21755;43.608;1.236;2023-11-21T13:32:59;12.00;99.90
34768;DHT22;21755;43.608;1.236;2023-11-21T13:35:32;11.90;99.90
34768;DHT22;21755;43.608;1.236;2023-11-21T13:38:13;11.90;99.90
34768;DHT22;21755;43.608;1.236;2023-11-21T13:40:41;11.90;99.90
34768;DHT22;21755;43.608;1.236;2023-11-21T13:43:16;11.90;99.90
34768;DHT22;21755;43.608;1.236;2023-11-21T13:45:45;11.90;99.90
34768;DHT22;21755;43.608;1.236;2023-11-21T13:48:12;11.90;99.90
34768;DHT22;21755;43.608;1.236;2023-11-21T13:50:45;11.90;99.90
34768;DHT22;21755;43.608;1.236;2023-11-21T13:53:26;11.90;99.90
34768;DHT22;21755;43.608;1.236;2023-11-21T13:55:53;12.00;99.90
34768;DHT22;21755;43.608;1.236;2023-11-21T13:58:25;12.00;99.90
34768;DHT22;21755;43.608;1.236;2023-11-21T14:01:11;12.00;99.90
34768;DHT22;21755;43.608;1.236;2023-11-21T14:03:56;12.00;99.90
34768;DHT22;21755;43.608;1.236;2023-11-21T14:06:37;12.10;99.90
34768;DHT22;21755;43.608;1.236;2023-11-21T14:09:14;12.10;99.90
34768;DHT22;21755;43.608;1.236;2023-11-21T14:11:49;12.10;99.90
34768;DHT22;21755;43.608;1.236;2023-11-21T14:14:15;12.10;99.90
34768;DHT22;21755;43.608;1.236;2023-11-21T14:16:43;12.20;99.90
34768;DHT22;21755;43.608;1.236;2023-11-21T14:19:10;12.20;99.90
34768;DHT22;21755;43.608;1.236;2023-11-21T14:21:45;12.20;99.90
34768;DHT22;21755;43.608;1.236;2023-11-21T14:24:11;12.20;99.90
34768;DHT22;21755;43.608;1.236;2023-11-21T14:26:45;12.20;99.90
34768;DHT22;21755;43.608;1.236;2023-11-21T14:29:12;12.20;99.90
34768;DHT22;21755;43.608;1.236;2023-11-21T14:31:43;12.20;99.90
34768;DHT22;21755;43.608;1.236;2023-11-21T14:34:09;12.20;99.90
34768;DHT22;21755;43.608;1.236;2023-11-21T14:36:37;12.10;99.90
34768;DHT22;21755;43.608;1.236;2023-11-21T14:39:05;12.10;99.90
34768;DHT22;21755;43.608;1.236;2023-11-21T14:41:42;12.10;99.90
34768;DHT22;21755;43.608;1.236;2023-11-21T14:44:10;12.10;99.90
34768;DHT22;21755;43.608;1.236;2023-11-21T14:46:38;12.10;99.90
34768;DHT22;21755;43.608;1.236;2023-11-21T14:49:05;12.10;99.90
34768;DHT22;21755;43.608;1.236;2023-11-21T14:51:51;12.20;99.90
34768;DHT22;21755;43.608;1.236;2023-11-21T14:54:30;12.20;99.90
34768;DHT22;21755;43.608;1.236;2023-11-21T14:57:13;12.20;99.90
34768;DHT22;21755;43.608;1.236;2023-11-21T14:59:49;12.20;99.90
34768;DHT22;21755;43.608;1.236;2023-11-21T15:02:23;12.20;99.90
34768;DHT22;21755;43.608;1.236;2023-11-21T15:05:09;12.20;99.90
34768;DHT22;21755;43.608;1.236;2023-11-21T15:07:41;12.20;99.90
34768;DHT22;21755;43.608;1.236;2023-11-21T15:10:07;12.20;99.90
34768;DHT22;21755;43.608;1.236;2023-11-21T15:12:40;12.20;99.90
34768;DHT22;21755;43.608;1.236;2023-11-21T15:15:08;12.20;99.90
34768;DHT22;21755;43.608;1.236;2023-11-21T15:17:36;12.20;99.90
34768;DHT22;21755;43.608;1.236;2023-11-21T15:20:03;12.10;99.90
34768;DHT22;21755;43.608;1.236;2023-11-21T15:22:29;12.10;99.90
34768;DHT22;21755;43.608;1.236;2023-11-21T15:24:55;12.10;99.90
34768;DHT22;21755;43.608;1.236;2023-11-21T15:27:23;12.00;99.90
34768;DHT22;21755;43.608;1.236;2023-11-21T15:29:50;12.00;99.90
34768;DHT22;21755;43.608;1.236;2023-11-21T15:32:16;12.00;99.90
34768;DHT22;21755;43.608;1.236;2023-11-21T15:34:42;11.90;99.90
34768;DHT22;21755;43.608;1.236;2023-11-21T15:37:08;11.90;99.90
34768;DHT22;21755;43.608;1.236;2023-11-21T15:39:37;11.80;99.90
34768;DHT22;21755;43.608;1.236;2023-11-21T15:42:04;11.80;99.90
34768;DHT22;21755;43.608;1.236;2023-11-21T15:44:31;11.80;99.90
34768;DHT22;21755;43.608;1.236;2023-11-21T15:46:59;11.70;99.90